sensor_id;sensor_type;location;lat;lon;timestamp;pressure;altitude;pressure_sealevel;temperature
68510;BMP180;55512;50.102;19.958;2024-02-21T00:03:46;99291.00;;;4.62
68510;BMP180;55512;50.102;19.958;2024-02-21T00:06:23;99292.00;;;4.60
68510;BMP180;55512;50.102;19.958;2024-02-21T00:08:49;99291.00;;;4.52
68510;BMP180;55512;50.102;19.958;2024-02-21T00:11:17;99294.40;;;4.50
68510;BMP180;55512;50.102;19.958;2024-02-21T00:13:53;99288.20;;;4.48
68510;BMP180;55512;50.102;19.958;2024-02-21T00:16:34;99291.20;;;4.40
68510;BMP180;55512;50.102;19.958;2024-02-21T00:19:11;99290.60;;;4.30
68510;BMP180;55512;50.102;19.958;2024-02-21T00:22:30;99292.20;;;4.30
68510;BMP180;55512;50.102;19.958;2024-02-21T00:25:13;99288.60;;;4.30
68510;BMP180;55512;50.102;19.958;2024-02-21T00:27:41;99293.60;;;4.30
68510;BMP180;55512;50.102;19.958;2024-02-21T00:30:29;99290.20;;;4.30
68510;BMP180;55512;50.102;19.958;2024-02-21T00:32:57;99289.20;;;4.20
68510;BMP180;55512;50.102;19.958;2024-02-21T00:36:13;99285.00;;;4.20
68510;BMP180;55512;50.102;19.958;2024-02-21T00:38:52;99285.40;;;4.20
68510;BMP180;55512;50.102;19.958;2024-02-21T00:42:02;99283.20;;;4.20
68510;BMP180;55512;50.102;19.958;2024-02-21T00:44:35;99283.20;;;4.20
68510;BMP180;55512;50.102;19.958;2024-02-21T00:47:13;99280.80;;;4.20
68510;BMP180;55512;50.102;19.958;2024-02-21T00:50:12;99276.80;;;4.24
68510;BMP180;55512;50.102;19.958;2024-02-21T00:52:41;99269.40;;;4.30
68510;BMP180;55512;50.102;19.958;2024-02-21T00:55:42;99271.00;;;4.30
68510;BMP180;55512;50.102;19.958;2024-02-21T00:58:38;99265.40;;;4.32
68510;BMP180;55512;50.102;19.958;2024-02-21T01:01:52;99257.60;;;4.40
68510;BMP180;55512;50.102;19.958;2024-02-21T01:04:17;99261.00;;;4.40
68510;BMP180;55512;50.102;19.958;2024-02-21T01:06:57;99256.80;;;4.40
68510;BMP180;55512;50.102;19.958;2024-02-21T01:09:37;99259.60;;;4.40
68510;BMP180;55512;50.102;19.958;2024-02-21T01:12:29;99256.80;;;4.40
68510;BMP180;55512;50.102;19.958;2024-02-21T01:14:57;99257.20;;;4.40
68510;BMP180;55512;50.102;19.958;2024-02-21T01:17:33;99258.20;;;4.40
68510;BMP180;55512;50.102;19.958;2024-02-21T01:20:39;99259.20;;;4.40
68510;BMP180;55512;50.102;19.958;2024-02-21T01:26:40;99256.80;;;4.40
68510;BMP180;55512;50.102;19.958;2024-02-21T01:29:17;99250.80;;;4.40
68510;BMP180;55512;50.102;19.958;2024-02-21T01:32:16;99245.00;;;4.40
68510;BMP180;55512;50.102;19.958;2024-02-21T01:35:13;99247.00;;;4.40
68510;BMP180;55512;50.102;19.958;2024-02-21T01:37:44;99243.00;;;4.40
68510;BMP180;55512;50.102;19.958;2024-02-21T01:40:51;99240.20;;;4.40
68510;BMP180;55512;50.102;19.958;2024-02-21T01:46:24;99233.20;;;4.30
68510;BMP180;55512;50.102;19.958;2024-02-21T01:49:10;99227.00;;;4.20
68510;BMP180;55512;50.102;19.958;2024-02-21T01:55:02;99231.00;;;4.20
68510;BMP180;55512;50.102;19.958;2024-02-21T01:57:59;99232.60;;;4.18
68510;BMP180;55512;50.102;19.958;2024-02-21T02:00:45;99229.60;;;4.10
68510;BMP180;55512;50.102;19.958;2024-02-21T02:03:22;99221.00;;;4.10
68510;BMP180;55512;50.102;19.958;2024-02-21T02:05:55;99227.20;;;4.10
68510;BMP180;55512;50.102;19.958;2024-02-21T02:08:52;99223.20;;;4.10
68510;BMP180;55512;50.102;19.958;2024-02-21T02:11:39;99215.20;;;4.10
68510;BMP180;55512;50.102;19.958;2024-02-21T02:14:08;99222.40;;;4.10
68510;BMP180;55512;50.102;19.958;2024-02-21T02:16:36;99227.00;;;4.10
68510;BMP180;55512;50.102;19.958;2024-02-21T02:22:51;99214.80;;;4.10
68510;BMP180;55512;50.102;19.958;2024-02-21T02:25:53;99218.00;;;4.10
68510;BMP180;55512;50.102;19.958;2024-02-21T02:28:48;99215.80;;;4.10
68510;BMP180;55512;50.102;19.958;2024-02-21T02:31:14;99212.00;;;4.10
68510;BMP180;55512;50.102;19.958;2024-02-21T02:37:19;99211.20;;;4.10
68510;BMP180;55512;50.102;19.958;2024-02-21T02:41:03;99210.80;;;4.10
68510;BMP180;55512;50.102;19.958;2024-02-21T02:47:17;99200.20;;;4.10
68510;BMP180;55512;50.102;19.958;2024-02-21T02:50:19;99210.20;;;4.10
68510;BMP180;55512;50.102;19.958;2024-02-21T02:53:17;99206.20;;;4.10
68510;BMP180;55512;50.102;19.958;2024-02-21T02:55:50;99211.00;;;4.10
68510;BMP180;55512;50.102;19.958;2024-02-21T02:58:32;99211.60;;;4.10
68510;BMP180;55512;50.102;19.958;2024-02-21T03:01:06;99208.20;;;4.10
68510;BMP180;55512;50.102;19.958;2024-02-21T03:03:36;99201.80;;;4.10
68510;BMP180;55512;50.102;19.958;2024-02-21T03:12:01;99195.40;;;4.10
68510;BMP180;55512;50.102;19.958;2024-02-21T03:17:21;99189.00;;;4.10
68510;BMP180;55512;50.102;19.958;2024-02-21T03:20:08;99187.80;;;4.10
68510;BMP180;55512;50.102;19.958;2024-02-21T03:22:49;99184.40;;;4.10
68510;BMP180;55512;50.102;19.958;2024-02-21T03:25:20;99185.20;;;4.10
68510;BMP180;55512;50.102;19.958;2024-02-21T03:28:36;99183.80;;;4.10
68510;BMP180;55512;50.102;19.958;2024-02-21T03:31:22;99190.20;;;4.10
68510;BMP180;55512;50.102;19.958;2024-02-21T03:34:04;99194.20;;;4.10
68510;BMP180;55512;50.102;19.958;2024-02-21T03:36:55;99193.20;;;4.10
68510;BMP180;55512;50.102;19.958;2024-02-21T03:39:32;99193.60;;;4.10
68510;BMP180;55512;50.102;19.958;2024-02-21T03:42:26;99189.00;;;4.10
68510;BMP180;55512;50.102;19.958;2024-02-21T03:45:10;99181.20;;;4.10
68510;BMP180;55512;50.102;19.958;2024-02-21T03:47:52;99179.40;;;4.10
68510;BMP180;55512;50.102;19.958;2024-02-21T03:51:05;99176.00;;;4.10
68510;BMP180;55512;50.102;19.958;2024-02-21T03:53:50;99183.20;;;4.10
68510;BMP180;55512;50.102;19.958;2024-02-21T03:56:49;99182.40;;;4.10
68510;BMP180;55512;50.102;19.958;2024-02-21T03:59:26;99185.80;;;4.10
68510;BMP180;55512;50.102;19.958;2024-02-21T04:02:12;99185.40;;;4.10
68510;BMP180;55512;50.102;19.958;2024-02-21T04:04:46;99188.40;;;4.10
68510;BMP180;55512;50.102;19.958;2024-02-21T04:08:23;99182.20;;;4.10
68510;BMP180;55512;50.102;19.958;2024-02-21T04:11:13;99169.20;;;4.10
68510;BMP180;55512;50.102;19.958;2024-02-21T04:13:53;99172.20;;;4.10
68510;BMP180;55512;50.102;19.958;2024-02-21T04:16:28;99176.40;;;4.10
68510;BMP180;55512;50.102;19.958;2024-02-21T04:19:12;99178.40;;;4.10
68510;BMP180;55512;50.102;19.958;2024-02-21T04:22:01;99172.00;;;4.10
68510;BMP180;55512;50.102;19.958;2024-02-21T04:24:57;99168.80;;;4.10
68510;BMP180;55512;50.102;19.958;2024-02-21T04:31:32;99150.80;;;4.00
68510;BMP180;55512;50.102;19.958;2024-02-21T04:34:52;99150.00;;;4.00
68510;BMP180;55512;50.102;19.958;2024-02-21T04:41:24;99144.60;;;3.90
68510;BMP180;55512;50.102;19.958;2024-02-21T04:47:37;99153.40;;;3.74
68510;BMP180;55512;50.102;19.958;2024-02-21T04:54:40;99149.80;;;3.70
68510;BMP180;55512;50.102;19.958;2024-02-21T04:57:17;99153.40;;;3.78
68510;BMP180;55512;50.102;19.958;2024-02-21T05:00:27;99158.60;;;3.80
68510;BMP180;55512;50.102;19.958;2024-02-21T05:03:52;99158.00;;;3.80
68510;BMP180;55512;50.102;19.958;2024-02-21T05:06:45;99164.20;;;3.80
68510;BMP180;55512;50.102;19.958;2024-02-21T05:10:01;99165.00;;;3.80
68510;BMP180;55512;50.102;19.958;2024-02-21T05:13:36;99164.60;;;3.90
68510;BMP180;55512;50.102;19.958;2024-02-21T05:19:56;99157.80;;;3.90
68510;BMP180;55512;50.102;19.958;2024-02-21T05:27:14;99155.20;;;3.90
68510;BMP180;55512;50.102;19.958;2024-02-21T05:43:02;99164.20;;;4.00
68510;BMP180;55512;50.102;19.958;2024-02-21T05:45:53;99169.60;;;4.10
68510;BMP180;55512;50.102;19.958;2024-02-21T05:48:42;99161.80;;;4.10
68510;BMP180;55512;50.102;19.958;2024-02-21T05:54:39;99153.60;;;4.10
68510;BMP180;55512;50.102;19.958;2024-02-21T05:57:26;99154.00;;;4.10
68510;BMP180;55512;50.102;19.958;2024-02-21T06:01:03;99156.20;;;4.10
68510;BMP180;55512;50.102;19.958;2024-02-21T06:04:03;99154.40;;;4.10
68510;BMP180;55512;50.102;19.958;2024-02-21T06:06:36;99147.20;;;4.16
68510;BMP180;55512;50.102;19.958;2024-02-21T06:09:45;99146.20;;;4.20
68510;BMP180;55512;50.102;19.958;2024-02-21T06:12:46;99145.80;;;4.20
68510;BMP180;55512;50.102;19.958;2024-02-21T06:15:50;99146.60;;;4.20
68510;BMP180;55512;50.102;19.958;2024-02-21T06:18:45;99148.20;;;4.30
68510;BMP180;55512;50.102;19.958;2024-02-21T06:25:28;99152.80;;;4.40
68510;BMP180;55512;50.102;19.958;2024-02-21T06:31:15;99136.60;;;4.50
68510;BMP180;55512;50.102;19.958;2024-02-21T06:33:41;99141.60;;;4.50
68510;BMP180;55512;50.102;19.958;2024-02-21T06:39:48;99145.20;;;4.60
68510;BMP180;55512;50.102;19.958;2024-02-21T06:42:43;99144.40;;;4.60
68510;BMP180;55512;50.102;19.958;2024-02-21T06:45:22;99144.60;;;4.70
68510;BMP180;55512;50.102;19.958;2024-02-21T06:47:57;99149.40;;;4.70
68510;BMP180;55512;50.102;19.958;2024-02-21T06:50:34;99147.00;;;4.80
68510;BMP180;55512;50.102;19.958;2024-02-21T06:53:30;99150.40;;;4.80
68510;BMP180;55512;50.102;19.958;2024-02-21T06:56:16;99149.60;;;4.90
68510;BMP180;55512;50.102;19.958;2024-02-21T06:58:57;99149.80;;;4.90
68510;BMP180;55512;50.102;19.958;2024-02-21T07:01:31;99144.20;;;5.00
68510;BMP180;55512;50.102;19.958;2024-02-21T07:04:00;99144.40;;;5.00
68510;BMP180;55512;50.102;19.958;2024-02-21T07:06:41;99147.40;;;5.00
68510;BMP180;55512;50.102;19.958;2024-02-21T07:09:53;99150.60;;;5.10
68510;BMP180;55512;50.102;19.958;2024-02-21T07:16:07;99145.40;;;5.10
68510;BMP180;55512;50.102;19.958;2024-02-21T07:18:56;99148.60;;;5.10
68510;BMP180;55512;50.102;19.958;2024-02-21T07:21:48;99146.00;;;5.16
68510;BMP180;55512;50.102;19.958;2024-02-21T07:24:37;99147.60;;;5.22
68510;BMP180;55512;50.102;19.958;2024-02-21T07:29:54;99142.20;;;5.40
68510;BMP180;55512;50.102;19.958;2024-02-21T07:32:35;99138.60;;;5.50
68510;BMP180;55512;50.102;19.958;2024-02-21T07:35:35;99139.60;;;5.50
68510;BMP180;55512;50.102;19.958;2024-02-21T07:38:37;99136.00;;;5.50
68510;BMP180;55512;50.102;19.958;2024-02-21T07:42:20;99134.60;;;5.60
68510;BMP180;55512;50.102;19.958;2024-02-21T07:44:33;99130.60;;;5.70
68510;BMP180;55512;50.102;19.958;2024-02-21T07:47:22;99132.20;;;5.76
68510;BMP180;55512;50.102;19.958;2024-02-21T07:50:20;99125.80;;;5.80
68510;BMP180;55512;50.102;19.958;2024-02-21T07:52:50;99126.60;;;5.98
68510;BMP180;55512;50.102;19.958;2024-02-21T07:56:16;99120.00;;;6.10
68510;BMP180;55512;50.102;19.958;2024-02-21T07:59:14;99122.60;;;6.20
68510;BMP180;55512;50.102;19.958;2024-02-21T08:01:40;99121.00;;;6.38
68510;BMP180;55512;50.102;19.958;2024-02-21T08:04:35;99120.00;;;6.50
68510;BMP180;55512;50.102;19.958;2024-02-21T08:09:58;99114.40;;;6.60
68510;BMP180;55512;50.102;19.958;2024-02-21T08:12:39;99113.00;;;6.70
68510;BMP180;55512;50.102;19.958;2024-02-21T08:15:15;99111.60;;;6.80
68510;BMP180;55512;50.102;19.958;2024-02-21T08:18:28;99113.00;;;6.80
68510;BMP180;55512;50.102;19.958;2024-02-21T08:21:07;99109.00;;;6.90
68510;BMP180;55512;50.102;19.958;2024-02-21T08:26:57;99107.40;;;7.00
68510;BMP180;55512;50.102;19.958;2024-02-21T08:29:45;99110.80;;;7.10
68510;BMP180;55512;50.102;19.958;2024-02-21T08:32:32;99102.60;;;7.10
68510;BMP180;55512;50.102;19.958;2024-02-21T08:35:04;99101.40;;;7.20
68510;BMP180;55512;50.102;19.958;2024-02-21T08:37:54;99104.00;;;7.20
68510;BMP180;55512;50.102;19.958;2024-02-21T08:40:49;99101.40;;;7.30
68510;BMP180;55512;50.102;19.958;2024-02-21T08:43:46;99102.80;;;7.32
68510;BMP180;55512;50.102;19.958;2024-02-21T08:46:15;99101.20;;;7.40
68510;BMP180;55512;50.102;19.958;2024-02-21T08:51:45;99088.40;;;7.50
68510;BMP180;55512;50.102;19.958;2024-02-21T08:54:42;99088.20;;;7.60
68510;BMP180;55512;50.102;19.958;2024-02-21T09:00:05;99081.20;;;7.70
68510;BMP180;55512;50.102;19.958;2024-02-21T09:02:42;99079.80;;;7.80
68510;BMP180;55512;50.102;19.958;2024-02-21T09:05:09;99076.00;;;7.80
68510;BMP180;55512;50.102;19.958;2024-02-21T09:07:51;99077.00;;;7.80
68510;BMP180;55512;50.102;19.958;2024-02-21T09:10:25;99072.80;;;7.80
68510;BMP180;55512;50.102;19.958;2024-02-21T09:13:12;99070.40;;;7.80
68510;BMP180;55512;50.102;19.958;2024-02-21T09:15:49;99068.40;;;7.70
68510;BMP180;55512;50.102;19.958;2024-02-21T09:18:21;99071.00;;;7.70
68510;BMP180;55512;50.102;19.958;2024-02-21T09:20:50;99072.40;;;7.70
68510;BMP180;55512;50.102;19.958;2024-02-21T09:23:38;99075.80;;;7.62
68510;BMP180;55512;50.102;19.958;2024-02-21T09:26:24;99080.80;;;7.60
68510;BMP180;55512;50.102;19.958;2024-02-21T09:28:53;99078.60;;;7.60
68510;BMP180;55512;50.102;19.958;2024-02-21T09:32:00;99080.00;;;7.70
68510;BMP180;55512;50.102;19.958;2024-02-21T09:34:38;99077.80;;;7.70
68510;BMP180;55512;50.102;19.958;2024-02-21T09:37:08;99079.60;;;7.80
68510;BMP180;55512;50.102;19.958;2024-02-21T09:39:46;99079.60;;;7.90
68510;BMP180;55512;50.102;19.958;2024-02-21T09:42:49;99090.00;;;8.00
68510;BMP180;55512;50.102;19.958;2024-02-21T09:45:32;99079.00;;;8.00
68510;BMP180;55512;50.102;19.958;2024-02-21T09:48:39;99078.60;;;8.10
68510;BMP180;55512;50.102;19.958;2024-02-21T09:51:15;99088.00;;;8.10
68510;BMP180;55512;50.102;19.958;2024-02-21T09:53:50;99078.60;;;8.20
68510;BMP180;55512;50.102;19.958;2024-02-21T09:56:19;99076.80;;;8.20
68510;BMP180;55512;50.102;19.958;2024-02-21T09:59:06;99081.40;;;8.30
68510;BMP180;55512;50.102;19.958;2024-02-21T10:01:35;99086.80;;;8.30
68510;BMP180;55512;50.102;19.958;2024-02-21T10:04:01;99078.40;;;8.40
68510;BMP180;55512;50.102;19.958;2024-02-21T10:06:34;99076.80;;;8.40
68510;BMP180;55512;50.102;19.958;2024-02-21T10:09:08;99076.20;;;8.50
68510;BMP180;55512;50.102;19.958;2024-02-21T10:11:49;99071.60;;;8.50
68510;BMP180;55512;50.102;19.958;2024-02-21T10:14:18;99065.20;;;8.50
68510;BMP180;55512;50.102;19.958;2024-02-21T10:16:58;99063.80;;;8.50
68510;BMP180;55512;50.102;19.958;2024-02-21T10:19:28;99068.20;;;8.50
68510;BMP180;55512;50.102;19.958;2024-02-21T10:22:10;99063.00;;;8.52
68510;BMP180;55512;50.102;19.958;2024-02-21T10:24:47;99060.20;;;8.60
68510;BMP180;55512;50.102;19.958;2024-02-21T10:27:18;99052.60;;;8.60
68510;BMP180;55512;50.102;19.958;2024-02-21T10:29:51;99053.80;;;8.70
68510;BMP180;55512;50.102;19.958;2024-02-21T10:32:17;99050.00;;;8.70
68510;BMP180;55512;50.102;19.958;2024-02-21T10:34:43;99052.40;;;8.70
68510;BMP180;55512;50.102;19.958;2024-02-21T10:37:23;99045.60;;;8.70
68510;BMP180;55512;50.102;19.958;2024-02-21T10:39:51;99043.40;;;8.70
68510;BMP180;55512;50.102;19.958;2024-02-21T10:42:36;99036.20;;;8.70
68510;BMP180;55512;50.102;19.958;2024-02-21T10:45:15;99029.20;;;8.70
68510;BMP180;55512;50.102;19.958;2024-02-21T10:48:15;99024.80;;;8.80
68510;BMP180;55512;50.102;19.958;2024-02-21T10:59:06;99024.00;;;9.00
68510;BMP180;55512;50.102;19.958;2024-02-21T11:01:47;99023.00;;;9.10
68510;BMP180;55512;50.102;19.958;2024-02-21T11:04:18;99016.40;;;9.20
68510;BMP180;55512;50.102;19.958;2024-02-21T11:06:44;99010.80;;;9.30
68510;BMP180;55512;50.102;19.958;2024-02-21T11:09:28;99008.20;;;9.40
68510;BMP180;55512;50.102;19.958;2024-02-21T11:11:56;99007.60;;;9.50
68510;BMP180;55512;50.102;19.958;2024-02-21T11:14:27;99002.60;;;9.60
68510;BMP180;55512;50.102;19.958;2024-02-21T11:17:03;99001.60;;;9.60
68510;BMP180;55512;50.102;19.958;2024-02-21T11:19:44;98999.00;;;9.60
68510;BMP180;55512;50.102;19.958;2024-02-21T11:22:46;98992.00;;;9.60
68510;BMP180;55512;50.102;19.958;2024-02-21T11:28:31;98990.20;;;9.60
68510;BMP180;55512;50.102;19.958;2024-02-21T11:31:38;98986.20;;;9.60
68510;BMP180;55512;50.102;19.958;2024-02-21T11:34:29;98978.60;;;9.60
68510;BMP180;55512;50.102;19.958;2024-02-21T11:37:13;98979.40;;;9.60
68510;BMP180;55512;50.102;19.958;2024-02-21T11:39:53;98974.60;;;9.50
68510;BMP180;55512;50.102;19.958;2024-02-21T11:42:28;98974.40;;;9.50
68510;BMP180;55512;50.102;19.958;2024-02-21T11:45:08;98969.40;;;9.60
68510;BMP180;55512;50.102;19.958;2024-02-21T11:47:42;98962.80;;;9.62
68510;BMP180;55512;50.102;19.958;2024-02-21T11:50:14;98959.60;;;9.70
68510;BMP180;55512;50.102;19.958;2024-02-21T11:52:40;98957.60;;;9.80
68510;BMP180;55512;50.102;19.958;2024-02-21T11:55:22;98953.20;;;9.88
68510;BMP180;55512;50.102;19.958;2024-02-21T11:57:48;98946.80;;;9.86
68510;BMP180;55512;50.102;19.958;2024-02-21T12:01:04;98945.60;;;9.74
68510;BMP180;55512;50.102;19.958;2024-02-21T12:03:35;98949.00;;;9.70
68510;BMP180;55512;50.102;19.958;2024-02-21T12:06:16;98946.00;;;9.60
68510;BMP180;55512;50.102;19.958;2024-02-21T12:08:58;98945.40;;;9.58
68510;BMP180;55512;50.102;19.958;2024-02-21T12:11:43;98942.80;;;9.54
68510;BMP180;55512;50.102;19.958;2024-02-21T12:14:28;98935.60;;;9.60
68510;BMP180;55512;50.102;19.958;2024-02-21T12:17:20;98938.40;;;9.68
68510;BMP180;55512;50.102;19.958;2024-02-21T12:19:51;98935.40;;;9.70
68510;BMP180;55512;50.102;19.958;2024-02-21T12:22:45;98928.00;;;9.80
68510;BMP180;55512;50.102;19.958;2024-02-21T12:25:21;98932.80;;;9.82
68510;BMP180;55512;50.102;19.958;2024-02-21T12:28:09;98928.20;;;9.90
68510;BMP180;55512;50.102;19.958;2024-02-21T12:31:07;98931.80;;;10.00
68510;BMP180;55512;50.102;19.958;2024-02-21T12:33:36;98934.80;;;10.10
68510;BMP180;55512;50.102;19.958;2024-02-21T12:36:19;98925.80;;;10.10
68510;BMP180;55512;50.102;19.958;2024-02-21T12:39:39;98922.80;;;10.20
68510;BMP180;55512;50.102;19.958;2024-02-21T12:44:59;98927.00;;;10.30
68510;BMP180;55512;50.102;19.958;2024-02-21T12:47:31;98928.60;;;10.40
68510;BMP180;55512;50.102;19.958;2024-02-21T12:50:06;98926.80;;;10.40
68510;BMP180;55512;50.102;19.958;2024-02-21T12:52:38;98922.00;;;10.40
68510;BMP180;55512;50.102;19.958;2024-02-21T12:55:16;98918.40;;;10.40
68510;BMP180;55512;50.102;19.958;2024-02-21T12:57:49;98916.80;;;10.30
68510;BMP180;55512;50.102;19.958;2024-02-21T13:00:16;98908.20;;;10.30
68510;BMP180;55512;50.102;19.958;2024-02-21T13:03:11;98909.00;;;10.20
68510;BMP180;55512;50.102;19.958;2024-02-21T13:05:38;98907.00;;;10.20
68510;BMP180;55512;50.102;19.958;2024-02-21T13:08:08;98906.20;;;10.10
68510;BMP180;55512;50.102;19.958;2024-02-21T13:10:47;98903.40;;;10.00
68510;BMP180;55512;50.102;19.958;2024-02-21T13:13:16;98894.20;;;9.90
68510;BMP180;55512;50.102;19.958;2024-02-21T13:15:50;98900.00;;;9.80
68510;BMP180;55512;50.102;19.958;2024-02-21T13:18:38;98909.20;;;9.68
68510;BMP180;55512;50.102;19.958;2024-02-21T13:21:10;98899.00;;;9.50
68510;BMP180;55512;50.102;19.958;2024-02-21T13:23:45;98897.40;;;9.50
68510;BMP180;55512;50.102;19.958;2024-02-21T13:26:17;98893.60;;;9.50
68510;BMP180;55512;50.102;19.958;2024-02-21T13:28:53;98891.80;;;9.50
68510;BMP180;55512;50.102;19.958;2024-02-21T13:31:30;98897.20;;;9.50
68510;BMP180;55512;50.102;19.958;2024-02-21T13:34:01;98893.80;;;9.40
68510;BMP180;55512;50.102;19.958;2024-02-21T13:36:51;98890.40;;;9.40
68510;BMP180;55512;50.102;19.958;2024-02-21T13:39:22;98888.20;;;9.36
68510;BMP180;55512;50.102;19.958;2024-02-21T13:44:35;98882.20;;;9.20
68510;BMP180;55512;50.102;19.958;2024-02-21T13:47:04;98883.00;;;9.20
68510;BMP180;55512;50.102;19.958;2024-02-21T13:49:52;98879.80;;;9.20
68510;BMP180;55512;50.102;19.958;2024-02-21T13:52:17;98877.00;;;9.10
68510;BMP180;55512;50.102;19.958;2024-02-21T13:54:46;98874.00;;;9.20
68510;BMP180;55512;50.102;19.958;2024-02-21T13:57:12;98873.80;;;9.20
68510;BMP180;55512;50.102;19.958;2024-02-21T13:59:42;98871.00;;;9.20
68510;BMP180;55512;50.102;19.958;2024-02-21T14:02:10;98866.40;;;9.10
68510;BMP180;55512;50.102;19.958;2024-02-21T14:04:37;98873.20;;;9.10
68510;BMP180;55512;50.102;19.958;2024-02-21T14:07:06;98865.40;;;9.10
68510;BMP180;55512;50.102;19.958;2024-02-21T14:09:51;98865.20;;;9.00
68510;BMP180;55512;50.102;19.958;2024-02-21T14:15:11;98865.20;;;8.90
68510;BMP180;55512;50.102;19.958;2024-02-21T14:17:51;98860.00;;;8.90
68510;BMP180;55512;50.102;19.958;2024-02-21T14:20:51;98860.40;;;8.80
68510;BMP180;55512;50.102;19.958;2024-02-21T14:23:38;98859.80;;;8.80
68510;BMP180;55512;50.102;19.958;2024-02-21T14:26:05;98866.00;;;8.70
68510;BMP180;55512;50.102;19.958;2024-02-21T14:28:43;98860.60;;;8.70
68510;BMP180;55512;50.102;19.958;2024-02-21T14:31:17;98859.20;;;8.56
68510;BMP180;55512;50.102;19.958;2024-02-21T14:33:49;98857.20;;;8.50
68510;BMP180;55512;50.102;19.958;2024-02-21T14:36:24;98854.20;;;8.40
68510;BMP180;55512;50.102;19.958;2024-02-21T14:39:03;98849.40;;;8.34
68510;BMP180;55512;50.102;19.958;2024-02-21T14:41:32;98850.40;;;8.30
68510;BMP180;55512;50.102;19.958;2024-02-21T14:44:18;98849.20;;;8.28
68510;BMP180;55512;50.102;19.958;2024-02-21T14:46:55;98843.20;;;8.20
68510;BMP180;55512;50.102;19.958;2024-02-21T14:52:12;98836.20;;;8.10
68510;BMP180;55512;50.102;19.958;2024-02-21T14:54:38;98830.80;;;8.00
68510;BMP180;55512;50.102;19.958;2024-02-21T14:57:35;98827.20;;;8.00
68510;BMP180;55512;50.102;19.958;2024-02-21T15:00:15;98826.00;;;7.98
68510;BMP180;55512;50.102;19.958;2024-02-21T15:03:00;98817.20;;;7.90
68510;BMP180;55512;50.102;19.958;2024-02-21T15:05:26;98816.60;;;7.90
68510;BMP180;55512;50.102;19.958;2024-02-21T15:08:16;98810.00;;;7.90
68510;BMP180;55512;50.102;19.958;2024-02-21T15:10:43;98811.60;;;7.80
68510;BMP180;55512;50.102;19.958;2024-02-21T15:13:52;98808.60;;;7.80
68510;BMP180;55512;50.102;19.958;2024-02-21T15:16:22;98806.00;;;7.80
68510;BMP180;55512;50.102;19.958;2024-02-21T15:25:21;98805.00;;;7.74
68510;BMP180;55512;50.102;19.958;2024-02-21T15:28:59;98802.40;;;7.80
68510;BMP180;55512;50.102;19.958;2024-02-21T15:32:11;98798.40;;;7.80
68510;BMP180;55512;50.102;19.958;2024-02-21T15:35:10;98800.80;;;7.80
68510;BMP180;55512;50.102;19.958;2024-02-21T15:37:51;98786.80;;;7.80
68510;BMP180;55512;50.102;19.958;2024-02-21T15:40:42;98781.80;;;7.80
68510;BMP180;55512;50.102;19.958;2024-02-21T15:43:16;98776.60;;;7.70
68510;BMP180;55512;50.102;19.958;2024-02-21T15:45:51;98778.40;;;7.70
68510;BMP180;55512;50.102;19.958;2024-02-21T15:48:19;98778.00;;;7.70
68510;BMP180;55512;50.102;19.958;2024-02-21T15:50:57;98774.60;;;7.66
68510;BMP180;55512;50.102;19.958;2024-02-21T15:53:41;98773.00;;;7.60
68510;BMP180;55512;50.102;19.958;2024-02-21T15:56:10;98771.20;;;7.60
68510;BMP180;55512;50.102;19.958;2024-02-21T15:58:42;98774.00;;;7.58
68510;BMP180;55512;50.102;19.958;2024-02-21T16:01:11;98775.20;;;7.50
68510;BMP180;55512;50.102;19.958;2024-02-21T16:03:38;98776.80;;;7.50
68510;BMP180;55512;50.102;19.958;2024-02-21T16:06:13;98776.00;;;7.48
68510;BMP180;55512;50.102;19.958;2024-02-21T16:08:52;98781.20;;;7.40
68510;BMP180;55512;50.102;19.958;2024-02-21T16:11:17;98778.00;;;7.40
68510;BMP180;55512;50.102;19.958;2024-02-21T16:14:04;98778.40;;;7.40
68510;BMP180;55512;50.102;19.958;2024-02-21T16:16:32;98779.60;;;7.30
68510;BMP180;55512;50.102;19.958;2024-02-21T16:18:58;98773.40;;;7.30
68510;BMP180;55512;50.102;19.958;2024-02-21T16:21:26;98762.80;;;7.30
68510;BMP180;55512;50.102;19.958;2024-02-21T16:23:55;98762.20;;;7.20
68510;BMP180;55512;50.102;19.958;2024-02-21T16:29:15;98759.20;;;7.20
68510;BMP180;55512;50.102;19.958;2024-02-21T16:31:41;98761.00;;;7.20
68510;BMP180;55512;50.102;19.958;2024-02-21T16:34:19;98753.40;;;7.12
68510;BMP180;55512;50.102;19.958;2024-02-21T16:36:49;98749.20;;;7.10
68510;BMP180;55512;50.102;19.958;2024-02-21T16:39:15;98745.20;;;7.10
68510;BMP180;55512;50.102;19.958;2024-02-21T16:41:54;98744.20;;;7.10
68510;BMP180;55512;50.102;19.958;2024-02-21T16:44:25;98736.40;;;7.10
68510;BMP180;55512;50.102;19.958;2024-02-21T16:47:14;98734.20;;;7.06
68510;BMP180;55512;50.102;19.958;2024-02-21T16:49:51;98724.20;;;7.02
68510;BMP180;55512;50.102;19.958;2024-02-21T16:52:29;98723.40;;;7.00
68510;BMP180;55512;50.102;19.958;2024-02-21T16:55:06;98727.00;;;7.00
68510;BMP180;55512;50.102;19.958;2024-02-21T16:57:38;98730.00;;;7.00
68510;BMP180;55512;50.102;19.958;2024-02-21T17:02:43;98730.40;;;7.00
68510;BMP180;55512;50.102;19.958;2024-02-21T17:05:12;98728.60;;;6.96
68510;BMP180;55512;50.102;19.958;2024-02-21T17:10:26;98723.00;;;6.90
68510;BMP180;55512;50.102;19.958;2024-02-21T17:13:03;98725.00;;;6.90
68510;BMP180;55512;50.102;19.958;2024-02-21T17:15:58;98718.20;;;6.90
68510;BMP180;55512;50.102;19.958;2024-02-21T17:18:41;98724.20;;;6.82
68510;BMP180;55512;50.102;19.958;2024-02-21T17:21:20;98721.60;;;6.80
68510;BMP180;55512;50.102;19.958;2024-02-21T17:24:41;98719.60;;;6.76
68510;BMP180;55512;50.102;19.958;2024-02-21T17:27:27;98716.00;;;6.70
68510;BMP180;55512;50.102;19.958;2024-02-21T17:30:09;98712.00;;;6.60
68510;BMP180;55512;50.102;19.958;2024-02-21T17:32:48;98706.00;;;6.50
68510;BMP180;55512;50.102;19.958;2024-02-21T17:35:44;98698.00;;;6.40
68510;BMP180;55512;50.102;19.958;2024-02-21T17:38:31;98695.80;;;6.30
68510;BMP180;55512;50.102;19.958;2024-02-21T17:41:11;98688.80;;;6.22
68510;BMP180;55512;50.102;19.958;2024-02-21T17:43:41;98692.20;;;6.20
68510;BMP180;55512;50.102;19.958;2024-02-21T17:46:19;98693.00;;;6.10
68510;BMP180;55512;50.102;19.958;2024-02-21T17:48:56;98692.40;;;6.04
68510;BMP180;55512;50.102;19.958;2024-02-21T17:51:36;98688.40;;;6.00
68510;BMP180;55512;50.102;19.958;2024-02-21T17:56:57;98676.40;;;5.90